Member area
Imprimable
Wissant, 08-09/09/2018, FRA - Trail de la Côte d'Opale
List of reports > 24km Challenge - Result
Search: Page: [1]
123 Entries
 
Complains are not accepted anymore. Results are final.
Category
PosNrLicenceNameAgeNATTeamTimeTkmMoy.PlaceNameCity
1.12084MAIBACH François37FRA1:43:544:20 13.861sem
2.12141TERMEER Robbie32BEL1:44:134:21 13.822sem
3.120732006680HACHE Nicolas28FRAS/L AC VILLENEU1:45:124:23 13.693sem
4.12045DARCIS Gilles31BEL1:45:524:25 13.604sem
5.12000CARLIER Stephane42FRATEAM DU CAILLOU1:46:044:26 13.581m1h
6.12001VANDEWALLE Thomas35FRA1:47:334:29 13.395sem
7.12090LAMBRECHTS Patrice-Charef36FRA1:48:084:31 13.326sem
8.120601754936TAUPIER Cedric41FRAENAA GAUCHY1:48:324:32 13.272m1h
9.12049BRUYNEEL Alain55BEL1:49:564:35 13.101m2h
10.12011CALOIN Jean-Francois47FRA1:50:144:36 13.063m1h
11.12081VERTONGHEN Yves46BELYVESPORT1:50:364:37 13.024m1h
12.12017A08040C0190125MV1FRAHAUW Gregory40FRAGRAVELINES TRIA1:50:374:37 13.025m1h
13.12132BODART Matthieu29FRADÉCATHLON1:52:304:42 12.807sem
14.12096MIKARIC Michaël33FRAESPRIT LIBRE1:52:574:43 12.758sem
15.12075BODART Fabien35FRALITTORAL AVENTU1:53:444:45 12.669sem
16.12135LEBRUN Julien43FRA1:53:474:45 12.666m1h
17.12046PIAU Alexandre38FRA1:56:054:51 12.4110sem
18.12143NR 12143 XXX1:56:364:52 12.351xxx
19.12126BELLYNCK Julien32FRA1:56:564:53 12.3211sem
20.121121838728COSSE Sébastien43FRAASLA1:57:044:53 12.307m1h
21.12086ANDRE Stéphane49FRA1:57:504:55 12.228m1h
22.120481869212SAULAS Olivier46FRAEA CERGY PONTOI1:58:004:55 12.209m1h
23.12065LEVEQUE Jean-François48FRAMASC ST CYR L'E1:58:194:56 12.1710m1h
24.12108THERY Maxime31FRA1:58:264:57 12.1612sem
25.12019LIBIN Christophe37BELPUREEVENTS.BE1:58:314:57 12.1513sem
26.121341520720HERNU Thibault25FRASERVIN AC1:58:424:57 12.1314sem
27.120092004689MILLE Xavier34FRABOURTHES RUNNIN1:58:524:58 12.1215sem
28.12146NR 12146 XXX1:59:094:58 12.092xxx
29.12022LECOMTE Raphael28FRA1:59:184:59 12.0716sem
30.12040ANCIAUX Jean-Paul49BELTEAM TRAIL SING2:01:355:04 11.8411m1h
31.12070BRULEZ Thomas37FRA2:01:455:05 11.8317sem
32.12142NR 12142 XXX2:02:575:08 11.713xxx
33.12080BUISSON Julien39FRA2:03:015:08 11.7118sem
34.12053HULIN Guy32BELTEAM DES FOUS!2:03:045:08 11.7019sem
35.12079CHARTAUX Raphael51FRATOUQUET TRAIL N2:03:555:10 11.622m2h
36.12137GUIHARD David45FRA2:04:075:11 11.6012m1h
37.12042BEAUDOUIN Brice41FRA2:05:195:14 11.4913m1h
38.12092DE ALMEIDA Manuel48FRATEAM TRAIL EXPL2:05:575:15 11.4314m1h
39.12083VENTURA Alberto54PRT2:06:265:17 11.393m2h
40.12031VANDYCKE David37FRACOLS BLEUS2:07:075:18 11.3320sem
41.12130LETAILLE Cedric25FRA2:08:035:21 11.2521sem
42.12067HERBIN Aurelien31FRA2:08:045:21 11.2422sem
43.120942005716BENFIALA Feissal34FRAHEM ATHLETIC CL2:08:245:21 11.2223sem
44.12069WIENCEK Andy44BELBIGDOGANDPONYTR2:08:325:22 11.2015m1h
45.12102RULLENS Adrien26BELJCHSH ET JCPMF 2:09:055:23 11.1624sem
46.12036GENCE Pierre47FRAJOGGING CLUB LA2:09:135:24 11.1516m1h
47.12057BERNARD Benoit36FRA2:09:185:24 11.1425sem
48.12028PAILLEY Christophe42FRA2:10:085:26 11.0717m1h
49.12097PEREZ MARTIN Antoine28FRATEAM TRAIL EXPL2:10:385:27 11.0226sem
50.12030SROKOSZEWSKI Michael36FRACOLS BLEUS2:11:305:29 10.9527sem
51.12118BEAUDET Fabrice48FRARUNNING-FAB2:12:375:32 10.8618m1h
52.12119WIBAUX Arthur23FRA2:13:175:34 10.8028sem
53.12089ANCELET Frederic52FRA2:13:515:35 10.764m2h
54.12007VITSE Florent25FRA2:13:555:35 10.7529sem
55.12063POUILLY Eric49FRATRRM ANNEZIN2:14:005:35 10.7519m1h
56.12035LEUPE Jean-Lou55BELLDLV2:14:145:36 10.735m2h
57.12107LE BRIS Jean-Yves62FRAGUIPAVAS OXYGÈN2:14:245:36 10.711m3h
58.12047NEE Jean Marie48FRAWHAT'S UP FOR2:14:385:37 10.7020m1h
59.12051VAN WAES Arnaud46FRA2:14:405:37 10.6921m1h
60.12115NAWROCKI Christian56FRA2:15:135:39 10.656m2h
61.12093LOTE Mickael41FRA2:16:295:42 10.5522m1h
62.12037GAUVAIN Pascal47BELJOGGING HAM-SUR2:17:085:43 10.5023m1h
63.12050D’AMOEE Laurent36FRA2:17:095:43 10.5030sem
64.12003CUCHERE Antoine29FRA2:17:105:43 10.5031sem
65.12136NEMEC Mathias29FRA2:17:325:44 10.4732sem
66.12103VELARD Laurent48FRATRAIL AVENTURES2:17:375:45 10.4624m1h
67.12121TRUFFIER Emmanuel45FRARUNNER EN NORD2:17:405:45 10.4625m1h
68.12021CREPIN Philippe61FRACE BOMBARDIER2:18:045:46 10.432m3h
69.12061FCOLLIENNE Christine46BEL2:19:415:50 10.311m1f
70.12025LEMAN Gatien46FRAHUMANIS2:20:375:52 10.2426m1h
71.12120CUVELIER Simon38FRA2:20:385:52 10.2433sem
72.12044GUEDOU Arnaud44FRA2:20:405:52 10.2427m1h
73.12082DELATTRE Remy29FRA2:21:275:54 10.1834sem
74.12054BERNICOT Olivier48FRAFAW2:21:495:55 10.1528m1h
75.12071BARANEK Irwin41FRACOURIR À BAISIE2:22:345:57 10.1029m1h
76.12128JEULIN Benoît33FRA2:22:475:57 10.0935sem
77.12014BERTHOUX Arnauld51FRAOXYGENE FITNESS2:23:015:58 10.077m2h
78.12117DELBECQUE Christian42FRA2:23:365:59 10.0330m1h
79.12104SAMOY Philippe52FRA2:25:026:03 9.938m2h
80.12127POINTU Norbert43FRAYAPAS !2:25:226:04 9.9131m1h
81.12059DEFFARGES Benjamin29FRA2:26:456:07 9.8136sem
82.12002LENGLEN Antoine30FRA2:26:496:08 9.8137sem
83.12068DELVILLE Jerome43FRA2:26:556:08 9.8032m1h
84.12124DUMONT Vincent29FRAEYES & TRAILS T2:29:346:14 9.6338sem
85.12041LETIERS Charles31FRA2:29:536:15 9.6139sem
86.12016LETIERS Benoit30FRA2:29:546:15 9.6140sem
87.12018A94809C0190105MS3FRAHERBAU Francois Xavier32FRA2:29:546:15 9.6141sem
88.12099FOURNET Laurent54FRATEAM TATA2:30:226:16 9.589m2h
89.12101FOURNET Maxime29FRATEAM TATA2:30:226:16 9.5842sem
90.12072HANQUIEZ Alain51FRACOLEMBERT2:30:386:17 9.5610m2h
91.120081188696VERHAMME Vincent46FRABERCK ATHLÉTISM2:31:056:18 9.5333m1h
92.12005BECARD David39FRA2:31:426:20 9.4943sem
93.12140BETENCOURT Thierry44FRAAC CAPELLOIS2:32:156:21 9.4634m1h
94.12129BREQUEVILLE Lionel48FRAAC CAPPELOIS2:32:176:21 9.4635m1h
95.12095GRESSIER Medhy40FRA2:32:446:22 9.4336m1h
96.12145NR 12145 XXX2:34:236:26 9.334xxx
97.12122TRIPLET David31FRA2:34:496:28 9.3044sem
98.12139DENIS Djonathan28FRA2:35:016:28 9.2945sem
99.12013SAMIEZ Vincent46FRA2:36:166:31 9.2237m1h
100.12033PAPIN Cyrille42BEL2:37:276:34 9.1538m1h
101.12088DIONIS Luc53FRA2:38:006:35 9.1111m2h
102.12020VAN GIJSEGHEM Victor34BEL2:38:176:36 9.1046sem
103.12032REGNIEZ Michel64FRAATSCAF DUNKERQU2:38:316:37 9.093m3h
104.12034VANDENHEULE Frédéric44BEL2:39:226:39 9.0439m1h
105.12074AYMARD Olivier59FRA2:40:126:41 8.9912m2h
106.12006WALLE Sébastien44FRA2:43:036:48 8.8340m1h
107.12062MEURIST Joel47BELTEMPLEUVE2:45:176:54 8.7141m1h
108.12123FUMERY Pierre-Antoine33FRA2:49:127:03 8.5147sem
109.12058SOUDANS Sébastien34FRARC.BLENDECQUES2:51:567:10 8.3848sem
110.12043A07429C0190112FV2FRAFCOUTURE Christine45FRALES COLS BLEUS2:53:397:15 8.292m1f
111.12029A07444C0190112MV2FRALIMOUSIN Raphael46FRALES COLS BLEUS2:53:427:15 8.2942m1h
112.12066GUEUDREZ Anthony35FRA2:54:067:16 8.2749sem
113.12138FLE FOLL Delphine41FRALONGUENESSE NAT2:57:127:23 8.133m1f
114.121311297342FDESNOT Valerie56FRAS/L UACA SAINT-2:57:227:24 8.121m2f
115.120391669818DESPRETZ Laurent51FRAMS CHANTENAY NA3:01:167:34 7.9413m2h
116.12091SALMISTRARO Nicolas40FRAACP BRETEUIL3:01:497:35 7.9243m1h
117.12015AMEL Boumedienne51FRAASSOCIATION ( L3:05:497:45 7.7514m2h
118.12010PRESSENSÉ Arnaud34FRA3:06:587:48 7.7050sem
119.12110CHAMINADE Guillaume52FRA3:10:387:57 7.5515m2h
120.12026COLMANT Olivier60BELJE COURS À INCO3:12:378:02 7.484m3h
121.12052PIRET Jean24FRA3:12:538:03 7.4751sem
122.12004DEMOULIN Steeve39FRA3:15:348:09 7.3652sem
DSQ12105VANAVERBEKE Philippe53FRA1:24:55m2h
DNF: did not finish; DSQ: disqualified; Speed in km/h
Page: [1]